Mifflinville, Pennsylvania
Current Conditions -  °F | °C
As of 6:55 AM on Friday 19 Dec 2014 (Local Time) from KHZL Reporting Station
Overcast Overcast  
Wind Chill: 21°   Ceiling: 800
Heat Index: 30°   Visibility: 10mi
Dew Point: 28°   Wind: 12mph
Humidity: 93%   Direction: 300°WNW
Pressure: 30"   Gusts: NA
Location:  41.03°N, 76.3°W
Report Text: KHZL 191155Z AUTO 30010KT 10SM OVC008 M01/M02 A3000 RMK AO2
Loading
Personal Weather Stations






























Interactive Weather Map New forecast layout! Learn more

10-Day Weather Forecast

Advertisements
Track Severe Weather on mobile